createdAt,value
2019-05-10T00:00:27.082Z,5.03
2019-05-10T00:05:48.067Z,5.30
2019-05-10T00:10:52.183Z,5.40
2019-05-10T00:15:53.742Z,6.03
2019-05-10T00:20:55.260Z,5.93
2019-05-10T00:25:57.123Z,5.33
2019-05-10T00:30:58.641Z,5.80
2019-05-10T00:36:00.093Z,6.00
2019-05-10T00:41:01.552Z,6.13
2019-05-10T00:46:03.203Z,6.83
2019-05-10T00:51:04.830Z,6.83
2019-05-10T00:56:06.263Z,5.80
2019-05-10T01:01:07.914Z,6.27
2019-05-10T01:06:09.718Z,7.23
2019-05-10T01:11:11.261Z,7.07
2019-05-10T01:16:12.701Z,6.57
2019-05-10T01:21:14.289Z,7.10
2019-05-10T01:26:15.747Z,6.00
2019-05-10T01:31:18.070Z,6.03
2019-05-10T01:36:22.371Z,6.30
2019-05-10T01:41:23.846Z,6.70
2019-05-10T01:46:25.304Z,6.33
2019-05-10T01:51:27.947Z,7.00
2019-05-10T01:56:29.682Z,6.60
2019-05-10T02:01:31.279Z,6.93
2019-05-10T02:06:32.712Z,6.63
2019-05-10T02:11:34.287Z,6.80
2019-05-10T02:16:35.740Z,6.70
2019-05-10T02:21:37.491Z,6.43
2019-05-10T02:26:39.046Z,6.23
2019-05-10T02:31:40.570Z,6.87
2019-05-10T02:36:42.465Z,6.37
2019-05-10T02:41:43.975Z,6.30
2019-05-10T02:46:45.481Z,6.30
2019-05-10T02:51:46.994Z,6.20
2019-05-10T02:56:51.248Z,6.23
2019-05-10T03:01:55.395Z,6.13
2019-05-10T03:07:04.883Z,6.40
2019-05-10T03:12:25.172Z,6.23
2019-05-10T03:17:27.520Z,6.40
2019-05-10T03:22:34.755Z,5.93
2019-05-10T03:27:37.193Z,6.40
2019-05-10T03:32:38.657Z,6.67
2019-05-10T03:37:40.624Z,6.47
2019-05-10T03:42:42.345Z,6.47
2019-05-10T03:47:43.817Z,6.53
2019-05-10T03:52:45.347Z,6.53
2019-05-10T03:57:46.798Z,5.73
2019-05-10T04:02:48.850Z,5.90
2019-05-10T04:07:50.319Z,7.27
2019-05-10T04:12:51.869Z,7.10
2019-05-10T04:17:53.375Z,6.23
2019-05-10T04:22:54.948Z,6.27
2019-05-10T04:27:56.495Z,5.73
2019-05-10T04:32:57.951Z,5.73
2019-05-10T04:37:59.414Z,5.60
2019-05-10T04:43:00.875Z,4.97
2019-05-10T04:48:02.437Z,5.30
2019-05-10T04:53:03.955Z,4.67
2019-05-10T04:58:05.810Z,4.20
2019-05-10T05:03:07.617Z,4.40
2019-05-10T05:08:09.068Z,4.17
2019-05-10T05:13:10.544Z,3.50
2019-05-10T05:18:12.304Z,3.20
2019-05-10T05:23:13.769Z,3.53
2019-05-10T05:28:18.439Z,3.37
2019-05-10T05:33:18.751Z,3.43
2019-05-10T05:38:20.274Z,3.40
2019-05-10T05:43:21.803Z,3.93
2019-05-10T05:48:38.456Z,3.70
2019-05-10T05:53:26.671Z,3.80
2019-05-10T05:58:28.124Z,4.13
2019-05-10T06:03:30.002Z,3.43
2019-05-10T06:08:31.618Z,3.93
2019-05-10T06:13:33.215Z,3.83
2019-05-10T06:18:34.673Z,3.80
2019-05-10T06:23:36.896Z,4.23
2019-05-10T06:33:45.064Z,4.20
2019-05-10T06:38:45.583Z,4.37
2019-05-10T06:43:51.491Z,4.07
2019-05-10T06:48:50.495Z,4.63
2019-05-10T06:53:53.756Z,4.53
2019-05-10T06:58:55.301Z,4.10
2019-05-10T07:03:56.755Z,5.10
2019-05-10T07:08:59.550Z,4.50
2019-05-10T07:14:01.187Z,3.70
2019-05-10T07:19:02.751Z,3.20
2019-05-10T07:24:04.205Z,2.97
2019-05-10T07:29:05.647Z,2.80
2019-05-10T07:34:09.853Z,2.70
2019-05-10T07:39:10.774Z,3.30
2019-05-10T07:44:12.434Z,2.80
2019-05-10T07:49:13.887Z,2.47
2019-05-10T07:54:15.437Z,2.30
2019-05-10T07:59:22.090Z,2.70
2019-05-10T08:04:28.900Z,2.33
2019-05-10T08:09:24.185Z,2.03
2019-05-10T08:14:25.814Z,2.30
2019-05-10T08:19:27.334Z,2.60
2019-05-10T08:24:28.859Z,2.80
2019-05-10T08:29:32.858Z,2.87
2019-05-10T08:34:35.691Z,2.97
2019-05-10T08:39:45.238Z,2.87
2019-05-10T08:44:42.605Z,2.60
2019-05-10T08:49:57.466Z,2.00
2019-05-10T08:54:47.312Z,2.83
2019-05-10T08:59:54.136Z,2.73
2019-05-10T09:04:52.978Z,3.27
2019-05-10T09:09:54.587Z,4.30
2019-05-10T09:15:05.709Z,4.10
2019-05-10T09:19:59.399Z,4.37
2019-05-10T09:25:01.789Z,5.20
2019-05-10T09:30:08.160Z,5.40
2019-05-10T09:35:09.464Z,5.67
2019-05-10T09:40:13.439Z,6.50
2019-05-10T09:45:15.610Z,6.63
2019-05-10T09:50:17.650Z,7.00
2019-05-10T09:55:19.099Z,7.60
2019-05-10T10:00:31.285Z,7.73
2019-05-10T10:05:32.745Z,10.23
2019-05-10T10:10:34.199Z,8.20
2019-05-10T10:15:37.324Z,11.10
2019-05-10T10:20:43.515Z,12.93
2019-05-10T10:25:42.751Z,13.87
2019-05-10T10:30:44.200Z,16.40
2019-05-10T10:35:47.926Z,13.33
2019-05-10T10:40:49.087Z,8.20
2019-05-10T10:45:50.543Z,12.40
2019-05-10T10:50:55.709Z,15.93
2019-05-10T10:56:00.673Z,15.63
2019-05-10T11:00:58.783Z,16.20
2019-05-10T11:06:00.257Z,13.90
2019-05-10T11:11:02.124Z,12.93
2019-05-10T11:16:09.983Z,12.10
2019-05-10T11:21:07.038Z,12.13
2019-05-10T11:26:10.730Z,11.93
2019-05-10T11:31:12.390Z,11.23
2019-05-10T11:36:13.842Z,10.93
2019-05-10T11:41:21.231Z,12.10
2019-05-10T11:46:20.899Z,11.10
2019-05-10T11:51:22.291Z,11.00
2019-05-10T11:56:27.549Z,8.87
2019-05-10T12:01:27.091Z,7.23
2019-05-10T12:06:28.598Z,5.83
2019-05-10T12:11:33.952Z,4.77
2019-05-10T12:16:33.796Z,4.27
2019-05-10T12:21:35.294Z,3.20
2019-05-10T12:31:41.520Z,4.40
2019-05-10T12:36:43.559Z,4.53
2019-05-10T12:41:49.613Z,5.10
2019-05-10T12:46:50.911Z,5.77
2019-05-10T12:51:52.148Z,5.27
2019-05-10T12:56:53.659Z,4.93
2019-05-10T13:01:58.142Z,5.53
2019-05-10T13:06:58.574Z,4.50
2019-05-10T13:12:03.898Z,4.10
2019-05-10T13:17:09.127Z,4.77
2019-05-10T13:22:07.550Z,3.20
2019-05-10T13:27:09.204Z,3.80
2019-05-10T13:32:14.902Z,3.10
2019-05-10T13:37:23.414Z,3.30
2019-05-10T13:42:17.486Z,3.63
2019-05-10T13:47:19.025Z,2.93
2019-05-10T13:52:20.941Z,2.30
2019-05-10T13:57:22.544Z,2.87
2019-05-10T14:02:32.599Z,3.03
2019-05-10T14:07:27.917Z,3.13
2019-05-10T14:12:29.382Z,3.20
2019-05-10T14:17:30.833Z,3.53
2019-05-10T14:22:32.275Z,3.90
2019-05-10T14:27:36.030Z,3.73
2019-05-10T14:32:37.401Z,4.50
2019-05-10T14:37:38.866Z,4.50
2019-05-10T14:42:40.355Z,5.07
2019-05-10T14:47:47.954Z,4.97
2019-05-10T14:52:45.249Z,4.60
2019-05-10T14:57:46.700Z,4.67
2019-05-10T15:02:48.079Z,4.40
2019-05-10T15:07:51.146Z,4.60
2019-05-10T15:12:52.889Z,4.83
2019-05-10T15:18:01.992Z,5.13
2019-05-10T15:22:57.698Z,4.67
2019-05-10T15:28:00.167Z,4.60
2019-05-10T15:33:02.728Z,5.20
2019-05-10T15:38:04.106Z,4.90
2019-05-10T15:43:10.573Z,5.53
2019-05-10T15:48:09.352Z,4.70
2019-05-10T15:53:11.014Z,4.00
2019-05-10T15:58:12.643Z,3.53
2019-05-10T16:03:14.206Z,3.77
2019-05-10T16:08:15.693Z,3.20
2019-05-10T16:13:23.326Z,3.47
2019-05-10T16:18:20.718Z,2.47
2019-05-10T16:23:22.166Z,1.83
2019-05-10T16:28:23.618Z,1.37
2019-05-10T16:33:25.058Z,1.47
2019-05-10T16:38:26.672Z,1.57
2019-05-10T16:43:28.479Z,1.70
2019-05-10T16:48:29.957Z,1.80
2019-05-10T16:53:31.592Z,2.07
2019-05-10T16:58:33.343Z,1.70
2019-05-10T17:03:34.859Z,2.07
2019-05-10T17:08:38.641Z,2.37
2019-05-10T17:13:41.655Z,2.23
2019-05-10T17:18:43.562Z,2.50
2019-05-10T17:23:46.711Z,2.03
2019-05-10T17:28:48.657Z,2.20
2019-05-10T17:33:50.127Z,2.43
2019-05-10T17:38:53.787Z,2.30
2019-05-10T17:43:55.177Z,2.20
2019-05-10T17:48:56.622Z,2.10
2019-05-10T17:54:01.360Z,1.67
2019-05-10T17:59:05.755Z,1.90
2019-05-10T18:04:05.400Z,1.90
2019-05-10T18:09:06.928Z,2.20
2019-05-10T18:14:12.456Z,2.00
2019-05-10T18:19:11.849Z,2.47
2019-05-10T18:24:13.302Z,2.30
2019-05-10T18:29:14.756Z,2.67
2019-05-10T18:34:16.338Z,2.50
2019-05-10T18:39:17.936Z,2.37
2019-05-10T18:44:20.115Z,2.00
2019-05-10T18:49:21.983Z,2.40
2019-05-10T18:54:23.544Z,2.37
2019-05-10T18:59:25.037Z,2.60
2019-05-10T19:04:26.477Z,2.33
2019-05-10T19:09:27.956Z,2.57
2019-05-10T19:14:29.956Z,2.60
2019-05-10T19:19:35.228Z,2.73
2019-05-10T19:24:36.065Z,3.43
2019-05-10T19:29:38.566Z,3.50
2019-05-10T19:34:41.157Z,3.83
2019-05-10T19:39:42.689Z,3.50
2019-05-10T19:44:44.315Z,3.23
2019-05-10T19:49:51.213Z,4.13
2019-05-10T19:54:49.599Z,4.40
2019-05-10T19:59:51.128Z,5.27
2019-05-10T20:04:52.584Z,5.07
2019-05-10T20:09:54.453Z,4.57
2019-05-10T20:14:55.941Z,4.40
2019-05-10T20:19:57.390Z,5.07
2019-05-10T20:24:59.029Z,5.50
2019-05-10T20:30:00.566Z,5.73
2019-05-10T20:35:05.219Z,5.13
2019-05-10T20:40:07.454Z,5.00
2019-05-10T20:45:09.610Z,5.10
2019-05-10T20:50:11.942Z,5.63
2019-05-10T20:55:13.772Z,6.10
2019-05-10T21:00:15.530Z,5.60
2019-05-10T21:05:16.997Z,6.53
2019-05-10T21:10:18.606Z,6.20
2019-05-10T21:15:20.050Z,6.67
2019-05-10T21:20:21.566Z,6.77
2019-05-10T21:25:23.968Z,6.63
2019-05-10T21:30:25.665Z,6.97
2019-05-10T21:35:27.334Z,5.77
2019-05-10T21:40:28.919Z,7.10
2019-05-10T21:45:30.599Z,6.43
2019-05-10T21:50:32.087Z,5.57
2019-05-10T21:55:33.764Z,6.07
2019-05-10T22:00:37.660Z,5.13
2019-05-10T22:05:39.504Z,5.47
2019-05-10T22:10:40.989Z,5.63
2019-05-10T22:15:42.643Z,5.80
2019-05-10T22:20:44.235Z,5.57
2019-05-10T22:25:45.717Z,5.50
2019-05-10T22:30:47.253Z,6.43
2019-05-10T22:35:48.750Z,7.87
2019-05-10T22:40:50.464Z,7.30
2019-05-10T22:45:51.994Z,7.50
2019-05-10T22:50:53.493Z,6.33
2019-05-10T22:55:55.206Z,6.43
2019-05-10T23:00:56.893Z,6.00
2019-05-10T23:05:59.014Z,5.60
2019-05-10T23:11:01.319Z,6.17
2019-05-10T23:16:03.097Z,6.07
2019-05-10T23:21:04.695Z,5.63
2019-05-10T23:26:06.172Z,5.90
2019-05-10T23:31:07.655Z,6.23
2019-05-10T23:36:09.152Z,6.40
2019-05-10T23:41:10.671Z,6.50
2019-05-10T23:46:12.154Z,6.43
2019-05-10T23:51:13.654Z,6.43
2019-05-10T23:56:15.299Z,6.33
